createdAt,value
2019-05-17T00:00:37.357Z,0.00
2019-05-17T00:01:37.547Z,0.00
2019-05-17T00:02:37.502Z,0.00
2019-05-17T00:03:36.539Z,0.00
2019-05-17T00:04:36.414Z,0.00
2019-05-17T00:05:37.489Z,0.00
2019-05-17T00:06:36.944Z,0.00
2019-05-17T00:07:36.918Z,0.00
2019-05-17T00:08:38.058Z,0.00
2019-05-17T00:09:37.267Z,0.00
2019-05-17T00:10:37.256Z,0.00
2019-05-17T00:11:36.746Z,0.00
2019-05-17T00:12:36.813Z,0.00
2019-05-17T00:13:34.857Z,0.00
2019-05-17T00:14:36.561Z,0.00
2019-05-17T00:15:36.649Z,0.00
2019-05-17T00:16:34.551Z,0.00
2019-05-17T00:17:34.443Z,0.00
2019-05-17T00:18:34.338Z,0.00
2019-05-17T00:19:34.237Z,0.00
2019-05-17T00:20:34.132Z,0.00
2019-05-17T00:21:34.027Z,0.00
2019-05-17T00:22:36.386Z,0.00
2019-05-17T00:23:33.822Z,0.00
2019-05-17T00:24:33.717Z,0.00
2019-05-17T00:25:33.614Z,0.00
2019-05-17T00:26:33.511Z,0.00
2019-05-17T00:27:33.407Z,0.00
2019-05-17T00:28:33.307Z,0.00
2019-05-17T00:29:33.204Z,0.00
2019-05-17T00:30:33.098Z,0.00
2019-05-17T00:31:32.997Z,0.00
2019-05-17T00:32:32.892Z,0.00
2019-05-17T00:33:32.794Z,0.00
2019-05-17T00:34:32.728Z,0.00
2019-05-17T00:35:32.583Z,0.00
2019-05-17T00:36:32.479Z,0.00
2019-05-17T00:37:32.380Z,0.00
2019-05-17T00:38:44.815Z,0.00
2019-05-17T00:39:32.171Z,0.00
2019-05-17T00:40:32.068Z,0.00
2019-05-17T00:41:31.966Z,0.00
2019-05-17T00:42:31.861Z,0.00
2019-05-17T00:43:31.758Z,0.00
2019-05-17T00:44:31.655Z,0.00
2019-05-17T00:45:31.553Z,0.00
2019-05-17T00:46:31.447Z,0.00
2019-05-17T00:47:31.347Z,0.00
2019-05-17T00:48:31.244Z,0.00
2019-05-17T00:49:31.140Z,0.00
2019-05-17T00:50:31.043Z,0.00
2019-05-17T00:51:30.933Z,0.00
2019-05-17T00:52:30.832Z,0.00
2019-05-17T00:53:30.761Z,0.00
2019-05-17T00:54:30.698Z,0.00
2019-05-17T00:55:30.523Z,0.00
2019-05-17T00:56:30.421Z,0.00
2019-05-17T00:57:30.318Z,0.00
2019-05-17T00:58:30.213Z,0.00
2019-05-17T00:59:30.117Z,0.00
2019-05-17T01:00:30.020Z,0.00
2019-05-17T01:01:29.906Z,0.00
2019-05-17T01:02:29.805Z,0.00
2019-05-17T01:03:29.700Z,0.00
2019-05-17T01:04:29.597Z,0.00
2019-05-17T01:05:29.492Z,0.00
2019-05-17T01:06:29.392Z,0.00
2019-05-17T01:07:29.288Z,0.00
2019-05-17T01:08:29.185Z,0.00
2019-05-17T01:09:29.086Z,0.00
2019-05-17T01:10:28.980Z,0.00
2019-05-17T01:11:28.878Z,0.00
2019-05-17T01:12:28.775Z,0.00
2019-05-17T01:13:28.745Z,0.00
2019-05-17T01:14:28.570Z,0.00
2019-05-17T01:15:28.467Z,0.00
2019-05-17T01:16:28.367Z,0.00
2019-05-17T01:17:28.262Z,0.00
2019-05-17T01:18:28.158Z,0.00
2019-05-17T01:19:28.055Z,0.00
2019-05-17T01:20:27.952Z,0.00
2019-05-17T01:21:27.853Z,0.00
2019-05-17T01:22:27.747Z,0.00
2019-05-17T01:23:27.642Z,0.00
2019-05-17T01:24:27.552Z,0.00
2019-05-17T01:25:27.439Z,0.00
2019-05-17T01:26:27.334Z,0.00
2019-05-17T01:27:27.232Z,0.00
2019-05-17T01:28:27.132Z,0.00
2019-05-17T01:29:27.028Z,0.00
2019-05-17T01:30:26.924Z,0.00
2019-05-17T01:31:26.822Z,0.00
2019-05-17T01:32:26.803Z,0.00
2019-05-17T01:33:26.662Z,0.00
2019-05-17T01:34:27.256Z,0.00
2019-05-17T01:35:26.743Z,0.00
2019-05-17T01:36:26.462Z,0.00
2019-05-17T01:37:27.772Z,0.00
2019-05-17T01:38:26.952Z,0.00
2019-05-17T01:39:26.878Z,0.00
2019-05-17T01:40:26.458Z,0.00
2019-05-17T01:41:26.689Z,0.00
2019-05-17T01:42:26.480Z,0.00
2019-05-17T01:43:27.361Z,0.00
2019-05-17T01:44:27.222Z,0.00
2019-05-17T01:45:26.936Z,0.00
2019-05-17T01:46:26.491Z,0.00
2019-05-17T01:47:27.114Z,0.00
2019-05-17T01:48:26.928Z,0.00
2019-05-17T01:49:26.955Z,0.00
2019-05-17T01:50:26.572Z,0.00
2019-05-17T01:51:26.336Z,0.00
2019-05-17T01:52:24.694Z,0.00
2019-05-17T01:53:26.890Z,0.00
2019-05-17T01:54:26.734Z,0.00
2019-05-17T01:55:26.411Z,0.00
2019-05-17T01:56:26.167Z,0.00
2019-05-17T01:57:24.145Z,0.00
2019-05-17T01:58:24.045Z,0.00
2019-05-17T01:59:23.942Z,0.00
2019-05-17T02:00:26.415Z,0.00
2019-05-17T02:01:23.744Z,0.00
2019-05-17T02:02:23.634Z,0.00
2019-05-17T02:03:23.530Z,0.00
2019-05-17T02:04:23.426Z,0.00
2019-05-17T02:05:23.324Z,0.00
2019-05-17T02:06:23.225Z,0.00
2019-05-17T02:07:23.118Z,0.00
2019-05-17T02:08:23.014Z,0.00
2019-05-17T02:09:34.881Z,0.00
2019-05-17T02:10:22.808Z,0.00
2019-05-17T02:11:22.708Z,0.00
2019-05-17T02:12:22.676Z,0.00
2019-05-17T02:13:22.499Z,0.00
2019-05-17T02:14:22.395Z,0.00
2019-05-17T02:15:22.291Z,0.00
2019-05-17T02:16:22.187Z,0.00
2019-05-17T02:17:22.087Z,0.00
2019-05-17T02:18:21.986Z,0.00
2019-05-17T02:19:21.877Z,0.00
2019-05-17T02:20:21.778Z,0.00
2019-05-17T02:21:21.677Z,0.00
2019-05-17T02:22:21.572Z,0.00
2019-05-17T02:23:21.467Z,0.00
2019-05-17T02:24:21.363Z,0.00
2019-05-17T02:25:21.258Z,0.00
2019-05-17T02:26:21.156Z,0.00
2019-05-17T02:27:21.983Z,0.00
2019-05-17T02:28:21.412Z,0.00
2019-05-17T02:29:21.436Z,0.00
2019-05-17T02:30:23.260Z,0.00
2019-05-17T02:31:20.644Z,0.00
2019-05-17T02:32:23.336Z,0.00
2019-05-17T02:33:23.351Z,0.00
2019-05-17T02:34:23.086Z,0.00
2019-05-17T02:35:22.868Z,0.00
2019-05-17T02:36:22.620Z,0.00
2019-05-17T02:37:22.912Z,0.00
2019-05-17T02:38:22.324Z,0.00
2019-05-17T02:39:22.948Z,0.00
2019-05-17T02:40:22.514Z,0.00
2019-05-17T02:41:22.517Z,0.00
2019-05-17T02:42:22.303Z,0.00
2019-05-17T02:43:19.401Z,0.00
2019-05-17T02:44:19.299Z,0.00
2019-05-17T02:45:19.204Z,0.00
2019-05-17T02:46:19.092Z,0.00
2019-05-17T02:47:18.988Z,0.00
2019-05-17T02:48:18.886Z,0.00
2019-05-17T02:49:18.782Z,0.00
2019-05-17T02:50:18.678Z,0.00
2019-05-17T02:51:18.616Z,0.00
2019-05-17T02:52:18.508Z,0.00
2019-05-17T02:53:18.368Z,0.00
2019-05-17T02:54:18.262Z,0.00
2019-05-17T02:55:18.162Z,0.00
2019-05-17T02:56:18.058Z,0.00
2019-05-17T02:57:17.956Z,0.00
2019-05-17T02:58:17.852Z,0.00
2019-05-17T02:59:17.749Z,0.00
2019-05-17T03:00:17.644Z,0.00
2019-05-17T03:01:17.545Z,0.00
2019-05-17T03:02:17.438Z,0.00
2019-05-17T03:03:17.335Z,0.00
2019-05-17T03:04:17.237Z,0.00
2019-05-17T03:05:17.128Z,0.00
2019-05-17T03:06:17.025Z,0.00
2019-05-17T03:07:16.926Z,0.00
2019-05-17T03:08:16.828Z,5.63
2019-05-17T03:09:16.713Z,5.63
2019-05-17T03:10:24.095Z,5.63
2019-05-17T03:11:16.596Z,5.63
2019-05-17T03:12:16.404Z,5.63
2019-05-17T03:13:18.064Z,5.63
2019-05-17T03:14:16.205Z,5.63
2019-05-17T03:15:16.098Z,5.63
2019-05-17T03:16:15.996Z,5.63
2019-05-17T03:17:15.890Z,5.63
2019-05-17T03:18:15.793Z,11.25
2019-05-17T03:19:15.681Z,11.25
2019-05-17T03:20:15.578Z,11.25
2019-05-17T03:21:15.479Z,11.25
2019-05-17T03:22:15.377Z,11.25
2019-05-17T03:23:15.267Z,11.25
2019-05-17T03:24:15.171Z,11.25
2019-05-17T03:25:15.061Z,16.88
2019-05-17T03:26:14.959Z,16.88
2019-05-17T03:27:14.853Z,16.88
2019-05-17T03:28:14.750Z,16.88
2019-05-17T03:29:14.645Z,16.88
2019-05-17T03:30:18.907Z,22.50
2019-05-17T03:31:17.184Z,22.50
2019-05-17T03:32:17.044Z,22.50
2019-05-17T03:33:16.099Z,22.50
2019-05-17T03:34:16.596Z,22.50
2019-05-17T03:35:16.763Z,28.13
2019-05-17T03:36:16.985Z,28.13
2019-05-17T03:37:16.179Z,28.13
2019-05-17T03:38:14.227Z,28.13
2019-05-17T03:39:13.613Z,33.75
2019-05-17T03:40:27.387Z,33.75
2019-05-17T03:41:22.229Z,33.75
2019-05-17T03:42:13.365Z,33.75
2019-05-17T03:43:13.805Z,39.38
2019-05-17T03:44:13.686Z,39.38
2019-05-17T03:45:13.749Z,39.38
2019-05-17T03:46:13.872Z,39.38
2019-05-17T03:47:13.175Z,39.38
2019-05-17T03:48:13.049Z,45.00
2019-05-17T03:49:13.216Z,45.00
2019-05-17T03:50:13.404Z,45.00
2019-05-17T03:51:13.127Z,45.00
2019-05-17T03:52:13.565Z,45.00
2019-05-17T03:53:13.137Z,50.63
2019-05-17T03:54:13.868Z,50.63
2019-05-17T03:55:13.156Z,50.63
2019-05-17T03:56:13.306Z,50.63
2019-05-17T03:57:13.469Z,56.25
2019-05-17T03:58:12.722Z,56.25
2019-05-17T03:59:12.887Z,56.25
2019-05-17T04:00:13.314Z,61.88
2019-05-17T04:01:13.971Z,61.88
2019-05-17T04:02:12.445Z,67.50
2019-05-17T04:03:13.508Z,67.50
2019-05-17T04:04:13.402Z,73.13
2019-05-17T04:05:12.636Z,78.75
2019-05-17T04:06:13.249Z,78.75
2019-05-17T04:07:12.692Z,78.75
2019-05-17T04:08:13.625Z,84.38
2019-05-17T04:09:13.444Z,84.38
2019-05-17T04:10:10.457Z,90.00
2019-05-17T04:11:25.315Z,90.00
2019-05-17T04:12:13.299Z,95.63
2019-05-17T04:13:12.700Z,95.63
2019-05-17T04:14:13.631Z,101.25
2019-05-17T04:15:12.994Z,101.25
2019-05-17T04:16:12.964Z,101.25
2019-05-17T04:17:09.692Z,101.25
2019-05-17T04:18:12.785Z,106.88
2019-05-17T04:19:09.495Z,112.50
2019-05-17T04:20:09.378Z,112.50
2019-05-17T04:21:12.305Z,112.50
2019-05-17T04:22:09.172Z,112.50
2019-05-17T04:23:09.068Z,118.13
2019-05-17T04:24:12.019Z,118.13
2019-05-17T04:25:08.865Z,123.75
2019-05-17T04:26:08.762Z,129.38
2019-05-17T04:27:08.660Z,129.38
2019-05-17T04:28:08.557Z,135.00
2019-05-17T04:29:08.509Z,135.00
2019-05-17T04:30:08.424Z,140.63
2019-05-17T04:31:08.248Z,140.63
2019-05-17T04:32:08.145Z,146.25
2019-05-17T04:33:08.048Z,140.63
2019-05-17T04:34:07.939Z,146.25
2019-05-17T04:35:07.839Z,151.88
2019-05-17T04:36:07.733Z,151.88
2019-05-17T04:37:07.635Z,151.88
2019-05-17T04:38:07.533Z,146.25
2019-05-17T04:39:07.426Z,146.25
2019-05-17T04:40:07.323Z,140.63
2019-05-17T04:41:07.222Z,140.63
2019-05-17T04:42:07.120Z,135.00
2019-05-17T04:43:07.016Z,140.63
2019-05-17T04:44:06.919Z,157.50
2019-05-17T04:45:06.825Z,157.50
2019-05-17T04:46:06.709Z,151.88
2019-05-17T04:47:06.608Z,157.50
2019-05-17T04:48:06.508Z,157.50
2019-05-17T04:49:06.478Z,151.88
2019-05-17T04:50:06.307Z,157.50
2019-05-17T04:51:06.196Z,168.75
2019-05-17T04:52:06.102Z,174.38
2019-05-17T04:53:05.993Z,185.63
2019-05-17T04:54:05.897Z,208.13
2019-05-17T04:55:05.798Z,196.88
2019-05-17T04:56:05.687Z,202.50
2019-05-17T04:57:05.590Z,225.00
2019-05-17T04:58:05.485Z,213.75
2019-05-17T04:59:05.384Z,225.00
2019-05-17T05:00:05.280Z,225.00
2019-05-17T05:01:05.178Z,236.25
2019-05-17T05:02:05.074Z,241.88
2019-05-17T05:03:04.973Z,264.38
2019-05-17T05:04:04.870Z,320.63
2019-05-17T05:05:04.768Z,354.38
2019-05-17T05:06:04.666Z,354.38
2019-05-17T05:07:04.564Z,337.50
2019-05-17T05:08:04.464Z,320.63
2019-05-17T05:09:04.385Z,331.88
2019-05-17T05:10:04.258Z,331.88
2019-05-17T05:11:04.481Z,326.25
2019-05-17T05:12:06.147Z,315.00
2019-05-17T05:13:03.954Z,303.75
2019-05-17T05:14:03.852Z,281.25
2019-05-17T05:15:03.824Z,320.63
2019-05-17T05:16:03.648Z,326.25
2019-05-17T05:17:03.550Z,348.75
2019-05-17T05:18:03.447Z,360.00
2019-05-17T05:19:03.346Z,360.00
2019-05-17T05:20:03.266Z,343.13
2019-05-17T05:21:03.832Z,360.00
2019-05-17T05:22:04.528Z,354.38
2019-05-17T05:23:02.937Z,326.25
2019-05-17T05:24:02.839Z,331.88
2019-05-17T05:25:02.737Z,331.88
2019-05-17T05:26:03.202Z,337.50
2019-05-17T05:27:02.675Z,376.88
2019-05-17T05:28:02.579Z,348.75
2019-05-17T05:29:02.453Z,343.13
2019-05-17T05:30:03.057Z,337.50
2019-05-17T05:31:02.207Z,331.88
2019-05-17T05:32:02.645Z,360.00
2019-05-17T05:33:02.079Z,421.88
2019-05-17T05:34:02.056Z,405.00
2019-05-17T05:35:03.114Z,455.63
2019-05-17T05:36:02.263Z,573.75
2019-05-17T05:37:02.098Z,731.25
2019-05-17T05:38:02.161Z,517.50
2019-05-17T05:39:02.372Z,534.38
2019-05-17T05:40:02.127Z,601.88
2019-05-17T05:41:01.898Z,579.38
2019-05-17T05:42:07.983Z,601.88
2019-05-17T05:43:02.329Z,579.38
2019-05-17T05:44:01.894Z,568.13
2019-05-17T05:45:02.936Z,556.88
2019-05-17T05:46:02.624Z,579.38
2019-05-17T05:47:02.149Z,613.13
2019-05-17T05:48:01.798Z,630.00
2019-05-17T05:49:01.842Z,663.75
2019-05-17T05:50:01.744Z,720.00
2019-05-17T05:51:03.157Z,641.25
2019-05-17T05:52:01.804Z,568.13
2019-05-17T05:53:01.785Z,500.63
2019-05-17T05:54:01.618Z,495.00
2019-05-17T05:55:01.457Z,489.38
2019-05-17T05:56:02.905Z,562.50
2019-05-17T05:57:02.079Z,697.50
2019-05-17T05:57:59.434Z,849.38
2019-05-17T05:58:59.345Z,855.00
2019-05-17T06:00:02.012Z,860.63
2019-05-17T06:00:59.143Z,793.13
2019-05-17T06:02:01.616Z,866.25
2019-05-17T06:02:58.946Z,877.50
2019-05-17T06:03:58.846Z,871.88
2019-05-17T06:04:58.747Z,877.50
2019-05-17T06:05:58.652Z,883.13
2019-05-17T06:06:58.554Z,883.13
2019-05-17T06:07:58.457Z,894.38
2019-05-17T06:08:58.385Z,916.88
2019-05-17T06:09:58.306Z,933.75
2019-05-17T06:10:58.168Z,961.88
2019-05-17T06:11:58.072Z,995.63
2019-05-17T06:12:57.978Z,1091.25
2019-05-17T06:13:57.880Z,1136.25
2019-05-17T06:14:57.787Z,1108.13
2019-05-17T06:15:57.698Z,1085.63
2019-05-17T06:16:57.597Z,1198.13
2019-05-17T06:17:57.497Z,1226.25
2019-05-17T06:18:57.403Z,1125.00
2019-05-17T06:19:57.310Z,1051.88
2019-05-17T06:20:57.217Z,1057.50
2019-05-17T06:21:57.119Z,1068.75
2019-05-17T06:22:57.027Z,1074.38
2019-05-17T06:23:56.934Z,1080.00
2019-05-17T06:24:56.838Z,1091.25
2019-05-17T06:25:56.744Z,1091.25
2019-05-17T06:26:56.652Z,1102.50
2019-05-17T06:27:56.559Z,1108.13
2019-05-17T06:28:56.464Z,1113.75
2019-05-17T06:29:56.373Z,1119.38
2019-05-17T06:30:56.342Z,1125.00
2019-05-17T06:31:56.184Z,1136.25
2019-05-17T06:32:56.091Z,1136.25
2019-05-17T06:33:55.999Z,1130.63
2019-05-17T06:34:55.905Z,1136.25
2019-05-17T06:35:55.814Z,1130.63
2019-05-17T06:36:55.722Z,1096.88
2019-05-17T06:37:55.628Z,1119.38
2019-05-17T06:38:55.536Z,1119.38
2019-05-17T06:39:55.447Z,1119.38
2019-05-17T06:40:55.362Z,1136.25
2019-05-17T06:41:55.262Z,1175.63
2019-05-17T06:42:55.172Z,1181.25
2019-05-17T06:43:55.076Z,1288.13
2019-05-17T06:44:54.986Z,2025.00
2019-05-17T06:45:54.892Z,2435.63
2019-05-17T06:46:54.803Z,2244.38
2019-05-17T06:47:54.709Z,2238.75
2019-05-17T06:48:54.620Z,2210.63
2019-05-17T06:49:54.526Z,2244.38
2019-05-17T06:50:54.440Z,2250.00
2019-05-17T06:51:54.344Z,2261.25
2019-05-17T06:52:54.335Z,2244.38
2019-05-17T06:53:54.291Z,2255.63
2019-05-17T06:54:54.153Z,2272.50
2019-05-17T06:55:54.063Z,2283.75
2019-05-17T06:56:53.973Z,2266.88
2019-05-17T06:57:53.881Z,2295.00
2019-05-17T06:58:53.790Z,2334.38
2019-05-17T06:59:53.699Z,2323.13
2019-05-17T07:00:53.609Z,2317.50
2019-05-17T07:01:53.518Z,2340.00
2019-05-17T07:02:53.433Z,2334.38
2019-05-17T07:03:53.338Z,2362.50
2019-05-17T07:04:53.252Z,2390.63
2019-05-17T07:05:53.155Z,2441.25
2019-05-17T07:06:53.066Z,2469.38
2019-05-17T07:07:52.975Z,2480.63
2019-05-17T07:08:52.885Z,2491.88
2019-05-17T07:09:52.796Z,2486.25
2019-05-17T07:10:52.704Z,2475.00
2019-05-17T07:11:52.614Z,2413.13
2019-05-17T07:12:58.546Z,2407.50
2019-05-17T07:13:52.432Z,2531.25
2019-05-17T07:14:52.347Z,2446.88
2019-05-17T07:15:52.333Z,2480.63
2019-05-17T07:16:52.165Z,2565.00
2019-05-17T07:17:52.069Z,2610.00
2019-05-17T07:18:51.980Z,2626.88
2019-05-17T07:19:51.889Z,2638.13
2019-05-17T07:20:51.800Z,2649.38
2019-05-17T07:21:51.714Z,2683.13
2019-05-17T07:22:51.615Z,2739.38
2019-05-17T07:23:51.524Z,2716.88
2019-05-17T07:24:51.437Z,2716.88
2019-05-17T07:25:51.344Z,2756.25
2019-05-17T07:26:51.254Z,2745.00
2019-05-17T07:27:51.164Z,2705.63
2019-05-17T07:28:51.073Z,2773.13
2019-05-17T07:29:50.981Z,2863.13
2019-05-17T07:30:50.889Z,2857.50
2019-05-17T07:31:50.799Z,2857.50
2019-05-17T07:32:50.711Z,2919.38
2019-05-17T07:33:50.615Z,2947.50
2019-05-17T07:34:50.873Z,2986.88
2019-05-17T07:35:50.434Z,2913.75
2019-05-17T07:36:50.446Z,2953.13
2019-05-17T07:37:50.300Z,3009.38
2019-05-17T07:38:50.500Z,3037.50
2019-05-17T07:40:00.461Z,3009.38
2019-05-17T07:40:50.325Z,3060.00
2019-05-17T07:41:49.887Z,3093.75
2019-05-17T07:42:50.122Z,3082.50
2019-05-17T07:43:49.837Z,3172.50
2019-05-17T07:44:49.772Z,3144.38
2019-05-17T07:45:49.663Z,3172.50
2019-05-17T07:46:51.818Z,3166.88
2019-05-17T07:47:49.470Z,3121.88
2019-05-17T07:48:49.761Z,3150.00
2019-05-17T07:49:49.477Z,2913.75
2019-05-17T07:50:50.363Z,2643.75
2019-05-17T07:51:50.295Z,2739.38
2019-05-17T07:52:50.014Z,2311.88
2019-05-17T07:53:49.503Z,1845.00
2019-05-17T07:54:50.849Z,1203.75
2019-05-17T07:55:50.375Z,793.13
2019-05-17T07:56:50.404Z,624.38
2019-05-17T07:57:49.599Z,517.50
2019-05-17T07:58:49.484Z,478.13
2019-05-17T07:59:50.636Z,466.88
2019-05-17T08:00:50.901Z,461.25
2019-05-17T08:01:50.217Z,450.00
2019-05-17T08:02:50.331Z,438.75
2019-05-17T08:03:49.957Z,438.75
2019-05-17T08:04:49.939Z,433.13
2019-05-17T08:05:47.598Z,433.13
2019-05-17T08:06:47.503Z,427.50
2019-05-17T08:07:49.863Z,421.88
2019-05-17T08:08:49.972Z,405.00
2019-05-17T08:09:47.218Z,388.13
2019-05-17T08:10:47.122Z,376.88
2019-05-17T08:11:47.029Z,376.88
2019-05-17T08:12:49.403Z,376.88
2019-05-17T08:13:46.835Z,382.50
2019-05-17T08:14:46.739Z,382.50
2019-05-17T08:15:46.648Z,376.88
2019-05-17T08:16:46.548Z,371.25
2019-05-17T08:17:46.452Z,365.63
2019-05-17T08:18:46.356Z,371.25
2019-05-17T08:19:46.258Z,371.25
2019-05-17T08:20:46.228Z,393.75
2019-05-17T08:21:46.115Z,399.38
2019-05-17T08:22:45.967Z,399.38
2019-05-17T08:23:45.872Z,405.00
2019-05-17T08:24:45.773Z,416.25
2019-05-17T08:25:52.891Z,472.50
2019-05-17T08:26:45.579Z,556.88
2019-05-17T08:27:45.481Z,669.38
2019-05-17T08:28:45.383Z,832.50
2019-05-17T08:29:45.284Z,1113.75
2019-05-17T08:30:45.185Z,2086.88
2019-05-17T08:31:45.089Z,3166.88
2019-05-17T08:32:44.992Z,3701.25
2019-05-17T08:33:44.891Z,3695.63
2019-05-17T08:34:44.792Z,3695.63
2019-05-17T08:35:44.708Z,3633.75
2019-05-17T08:36:44.600Z,3633.75
2019-05-17T08:37:44.501Z,3735.00
2019-05-17T08:38:44.401Z,3667.50
2019-05-17T08:39:44.304Z,3588.75
2019-05-17T08:40:44.212Z,3571.88
2019-05-17T08:41:44.172Z,3656.25
2019-05-17T08:42:44.008Z,3723.75
2019-05-17T08:43:47.019Z,3735.00
2019-05-17T08:44:43.811Z,3791.25
2019-05-17T08:45:43.711Z,3780.00
2019-05-17T08:46:43.612Z,3847.50
2019-05-17T08:47:43.524Z,3841.88
2019-05-17T08:48:43.418Z,3684.38
2019-05-17T08:49:43.319Z,3639.38
2019-05-17T08:50:43.225Z,3650.63
2019-05-17T08:51:43.128Z,3723.75
2019-05-17T08:52:43.032Z,3785.63
2019-05-17T08:53:42.936Z,3706.88
2019-05-17T08:54:43.005Z,3768.75
2019-05-17T08:55:42.747Z,3841.88
2019-05-17T08:56:42.654Z,3886.88
2019-05-17T08:57:42.559Z,3909.38
2019-05-17T08:58:42.462Z,3931.88
2019-05-17T08:59:42.371Z,4005.00
2019-05-17T09:00:42.277Z,3858.75
2019-05-17T09:01:42.183Z,3808.13
2019-05-17T09:02:42.161Z,3870.00
2019-05-17T09:03:42.007Z,3791.25
2019-05-17T09:04:41.909Z,3802.50
2019-05-17T09:05:42.066Z,3830.63
2019-05-17T09:06:41.721Z,3841.88
2019-05-17T09:07:41.630Z,3892.50
2019-05-17T09:08:41.626Z,4010.63
2019-05-17T09:09:41.535Z,3768.75
2019-05-17T09:10:41.442Z,3909.38
2019-05-17T09:11:41.349Z,4055.63
2019-05-17T09:12:41.296Z,663.75
2019-05-17T09:13:54.360Z,804.38
2019-05-17T09:14:41.077Z,950.63
2019-05-17T09:15:40.987Z,1383.75
2019-05-17T09:16:40.904Z,1558.13
2019-05-17T09:17:40.806Z,3015.00
2019-05-17T09:18:40.717Z,3515.63
2019-05-17T09:19:40.627Z,4179.38
2019-05-17T09:20:40.784Z,3425.63
2019-05-17T09:21:40.443Z,1698.75
2019-05-17T09:22:40.354Z,3498.75
2019-05-17T09:23:40.261Z,2289.38
2019-05-17T09:24:40.186Z,2986.88
2019-05-17T09:25:40.122Z,4168.13
2019-05-17T09:26:40.093Z,3920.63
2019-05-17T09:27:39.994Z,2857.50
2019-05-17T09:28:39.810Z,2356.88
2019-05-17T09:29:40.372Z,3105.00
2019-05-17T09:30:40.508Z,4213.13
2019-05-17T09:31:40.387Z,3082.50
2019-05-17T09:32:40.435Z,2053.13
2019-05-17T09:33:40.647Z,4348.13
2019-05-17T09:34:40.463Z,4269.38
2019-05-17T09:35:40.908Z,900.00
2019-05-17T09:36:40.890Z,933.75
2019-05-17T09:37:41.338Z,1839.38
2019-05-17T09:38:40.346Z,3037.50
2019-05-17T09:39:40.107Z,1620.00
2019-05-17T09:40:40.160Z,3791.25
2019-05-17T09:41:39.780Z,3436.88
2019-05-17T09:42:40.743Z,888.75
2019-05-17T09:43:40.268Z,776.25
2019-05-17T09:44:40.242Z,781.88
2019-05-17T09:45:40.308Z,877.50
2019-05-17T09:46:39.593Z,973.13
2019-05-17T09:47:39.768Z,2947.50
2019-05-17T09:48:39.654Z,4500.00
2019-05-17T09:49:39.486Z,1321.88
2019-05-17T09:50:39.908Z,928.13
2019-05-17T09:51:39.567Z,703.13
2019-05-17T09:52:40.253Z,658.13
2019-05-17T09:53:39.928Z,646.88
2019-05-17T09:54:42.334Z,787.50
2019-05-17T09:55:39.517Z,2525.63
2019-05-17T09:56:39.347Z,4443.75
2019-05-17T09:57:37.218Z,1473.75
2019-05-17T09:58:39.517Z,1175.63
2019-05-17T09:59:37.038Z,2317.50
2019-05-17T10:00:36.947Z,4348.13
2019-05-17T10:01:39.293Z,4550.63
2019-05-17T10:02:36.764Z,4606.88
2019-05-17T10:03:36.674Z,3605.63
2019-05-17T10:04:36.586Z,3178.13
2019-05-17T10:05:36.494Z,3262.50
2019-05-17T10:06:36.402Z,4741.88
2019-05-17T10:07:36.313Z,4640.63
2019-05-17T10:08:36.225Z,4865.63
2019-05-17T10:09:36.135Z,4393.13
2019-05-17T10:10:36.089Z,4089.38
2019-05-17T10:11:35.962Z,1631.25
2019-05-17T10:12:35.867Z,1260.00
2019-05-17T10:13:35.780Z,1485.00
2019-05-17T10:14:35.695Z,5113.13
2019-05-17T10:15:35.605Z,3858.75
2019-05-17T10:16:35.524Z,2227.50
2019-05-17T10:17:35.431Z,916.88
2019-05-17T10:18:35.344Z,613.13
2019-05-17T10:19:35.259Z,663.75
2019-05-17T10:20:35.173Z,821.25
2019-05-17T10:21:35.084Z,4944.38
2019-05-17T10:22:34.996Z,967.50
2019-05-17T10:23:34.910Z,776.25
2019-05-17T10:24:38.810Z,601.88
2019-05-17T10:25:34.736Z,562.50
2019-05-17T10:26:34.650Z,624.38
2019-05-17T10:27:34.559Z,697.50
2019-05-17T10:28:34.469Z,697.50
2019-05-17T10:29:34.382Z,697.50
2019-05-17T10:30:34.294Z,776.25
2019-05-17T10:31:34.208Z,1226.25
2019-05-17T10:32:34.118Z,1541.25
2019-05-17T10:33:34.085Z,1080.00
2019-05-17T10:34:34.014Z,736.88
2019-05-17T10:35:33.846Z,697.50
2019-05-17T10:36:33.760Z,770.63
2019-05-17T10:37:33.671Z,950.63
2019-05-17T10:38:33.579Z,6446.25
2019-05-17T10:39:33.490Z,6457.50
2019-05-17T10:40:33.399Z,658.13
2019-05-17T10:41:33.307Z,590.63
2019-05-17T10:42:33.221Z,573.75
2019-05-17T10:43:33.130Z,585.00
2019-05-17T10:44:44.314Z,613.13
2019-05-17T10:45:32.950Z,675.00
2019-05-17T10:46:32.857Z,787.50
2019-05-17T10:47:32.768Z,759.38
2019-05-17T10:48:32.676Z,731.25
2019-05-17T10:49:32.586Z,765.00
2019-05-17T10:50:32.494Z,759.38
2019-05-17T10:51:32.403Z,821.25
2019-05-17T10:52:32.318Z,900.00
2019-05-17T10:53:32.220Z,1006.88
2019-05-17T10:54:32.129Z,1046.25
2019-05-17T10:55:32.063Z,1113.75
2019-05-17T10:56:32.018Z,1220.63
2019-05-17T10:57:31.853Z,1130.63
2019-05-17T10:58:31.764Z,1057.50
2019-05-17T10:59:31.669Z,1023.75
2019-05-17T11:00:31.582Z,1012.50
2019-05-17T11:01:31.488Z,1018.13
2019-05-17T11:02:31.402Z,984.38
2019-05-17T11:03:31.306Z,928.13
2019-05-17T11:04:31.214Z,916.88
2019-05-17T11:05:31.121Z,905.63
2019-05-17T11:06:31.031Z,877.50
2019-05-17T11:07:30.941Z,832.50
2019-05-17T11:08:30.849Z,787.50
2019-05-17T11:09:31.166Z,714.38
2019-05-17T11:10:30.670Z,725.63
2019-05-17T11:11:30.574Z,714.38
2019-05-17T11:12:30.485Z,731.25
2019-05-17T11:13:30.390Z,770.63
2019-05-17T11:14:30.300Z,810.00
2019-05-17T11:15:30.208Z,765.00
2019-05-17T11:16:30.116Z,731.25
2019-05-17T11:17:30.040Z,720.00
2019-05-17T11:18:29.968Z,708.75
2019-05-17T11:19:29.839Z,697.50
2019-05-17T11:20:29.747Z,714.38
2019-05-17T11:21:29.656Z,691.88
2019-05-17T11:22:29.566Z,708.75
2019-05-17T11:23:29.477Z,731.25
2019-05-17T11:24:29.380Z,770.63
2019-05-17T11:25:29.289Z,765.00
2019-05-17T11:26:29.200Z,742.50
2019-05-17T11:27:29.104Z,725.63
2019-05-17T11:28:29.013Z,669.38
2019-05-17T11:29:28.919Z,630.00
2019-05-17T11:30:28.829Z,585.00
2019-05-17T11:31:28.738Z,551.25
2019-05-17T11:32:28.646Z,545.63
2019-05-17T11:33:28.558Z,556.88
2019-05-17T11:34:28.459Z,562.50
2019-05-17T11:35:28.370Z,573.75
2019-05-17T11:36:28.279Z,585.00
2019-05-17T11:37:28.182Z,607.50
2019-05-17T11:38:28.089Z,618.75
2019-05-17T11:39:28.009Z,607.50
2019-05-17T11:40:27.940Z,618.75
2019-05-17T11:41:27.810Z,618.75
2019-05-17T11:42:27.717Z,630.00
2019-05-17T11:43:27.625Z,635.63
2019-05-17T11:44:27.533Z,646.88
2019-05-17T11:45:30.275Z,624.38
2019-05-17T11:46:35.831Z,613.13
2019-05-17T11:47:27.253Z,607.50
2019-05-17T11:48:27.160Z,607.50
2019-05-17T11:49:27.067Z,635.63
2019-05-17T11:50:26.988Z,663.75
2019-05-17T11:51:27.448Z,708.75
2019-05-17T11:52:26.789Z,725.63
2019-05-17T11:53:26.696Z,708.75
2019-05-17T11:54:26.605Z,675.00
2019-05-17T11:55:26.513Z,618.75
2019-05-17T11:56:26.422Z,590.63
2019-05-17T11:57:26.324Z,556.88
2019-05-17T11:58:26.231Z,556.88
2019-05-17T11:59:26.137Z,556.88
2019-05-17T12:00:26.048Z,551.25
2019-05-17T12:01:25.991Z,551.25
2019-05-17T12:02:25.925Z,556.88
2019-05-17T12:03:25.768Z,551.25
2019-05-17T12:04:25.676Z,551.25
2019-05-17T12:05:25.583Z,534.38
2019-05-17T12:06:25.491Z,506.25
2019-05-17T12:07:25.395Z,523.13
2019-05-17T12:08:25.301Z,551.25
2019-05-17T12:09:36.387Z,579.38
2019-05-17T12:10:25.130Z,618.75
2019-05-17T12:11:25.025Z,669.38
2019-05-17T12:12:24.937Z,736.88
2019-05-17T12:13:24.836Z,860.63
2019-05-17T12:14:24.750Z,967.50
2019-05-17T12:15:24.651Z,1006.88
2019-05-17T12:16:24.560Z,1074.38
2019-05-17T12:17:24.464Z,1091.25
2019-05-17T12:18:24.371Z,1091.25
2019-05-17T12:19:24.279Z,1063.13
2019-05-17T12:20:24.186Z,1006.88
2019-05-17T12:21:24.093Z,978.75
2019-05-17T12:22:24.001Z,973.13
2019-05-17T12:23:23.986Z,950.63
2019-05-17T12:24:23.882Z,961.88
2019-05-17T12:25:23.728Z,950.63
2019-05-17T12:26:23.630Z,967.50
2019-05-17T12:27:23.536Z,984.38
2019-05-17T12:28:23.444Z,995.63
2019-05-17T12:29:23.351Z,1023.75
2019-05-17T12:30:23.174Z,995.63
2019-05-17T12:31:23.082Z,1018.13
2019-05-17T12:32:22.990Z,1023.75
2019-05-17T12:33:22.895Z,1029.38
2019-05-17T12:34:22.804Z,1023.75